Time;durP1;ratioP1;P1;durP2;ratioP2;P2;SDS_P1;SDS_P2;PMS_P1;PMS_P2;Temp;Humidity;BMP_temperature;BMP_pressure;BME280_temperature;BME280_humidity;BME280_pressure;Samples;Min_cycle;Max_cycle;Signal;HPM_P1;HPM_P2
2022/04/02 00:04:37;;;;;;;10.40;3.90;;;;;;;1.24;63.75;99819.19;5142436;56;1135019;-70
2022/04/02 00:09:43;;;;;;;11.17;3.87;;;;;;;1.27;63.79;99810.77;5142141;56;1134931;-69
2022/04/02 00:14:49;;;;;;;8.70;3.47;;;;;;;1.26;63.91;99808.23;5142224;57;1134913;-70
2022/04/02 00:19:55;;;;;;;5.40;3.20;;;;;;;1.19;63.84;99800.37;5142110;56;1132779;-70
2022/04/02 00:25:00;;;;;;;8.40;3.50;;;;;;;1.11;64.26;99792.08;5142282;57;1132829;-70
2022/04/02 00:30:07;;;;;;;7.57;3.80;;;;;;;1.08;64.62;99790.93;5170674;56;1132794;-70
2022/04/02 00:35:13;;;;;;;12.13;3.57;;;;;;;1.10;64.34;99800.35;5272138;55;1132815;-71
2022/04/02 00:40:19;;;;;;;8.98;4.00;;;;;;;1.09;64.51;99794.77;5304203;55;1134874;-70
2022/04/02 00:45:25;;;;;;;5.87;3.30;;;;;;;1.00;64.47;99794.78;5304433;55;1132819;-70
2022/04/02 00:50:31;;;;;;;5.13;2.97;;;;;;;0.94;65.22;99793.77;5304830;55;1132727;-70
2022/04/02 00:55:38;;;;;;;6.30;3.83;;;;;;;0.90;65.28;99791.41;5304944;55;1132756;-70
2022/04/02 01:00:45;;;;;;;11.40;3.00;;;;;;;0.90;65.37;99795.32;5305040;55;1130728;-71
2022/04/02 01:05:52;;;;;;;12.83;3.27;;;;;;;0.88;65.57;99792.79;5305021;55;1132651;-72
2022/04/02 01:11:00;;;;;;;8.27;3.47;;;;;;;0.87;65.75;99795.01;5304678;55;1132812;-70
2022/04/02 01:16:08;;;;;;;8.73;2.85;;;;;;;0.89;65.63;99791.03;5247749;55;1130683;-70
2022/04/02 01:21:15;;;;;;;5.37;3.00;;;;;;;0.83;65.21;99805.64;5227602;56;1130656;-70
2022/04/02 01:26:22;;;;;;;9.80;3.10;;;;;;;0.77;65.68;99792.45;5227833;56;1130743;-70
2022/04/02 01:31:30;;;;;;;8.20;3.60;;;;;;;0.79;65.32;99806.23;5220702;56;1130676;-70
2022/04/02 01:36:37;;;;;;;4.70;2.83;;;;;;;0.75;65.22;99804.73;5141685;56;1130782;-70
2022/04/02 01:41:50;;;;;;;8.98;2.77;;;;;;;0.68;65.05;99810.67;5202221;56;1130766;-69
2022/04/02 01:46:57;;;;;;;6.33;2.87;;;;;;;0.66;64.88;99809.05;5149412;56;1130672;-70
2022/04/02 01:52:05;;;;;;;6.43;2.70;;;;;;;0.58;64.68;99809.90;5141764;57;1130453;-70
2022/04/02 01:57:12;;;;;;;7.93;2.50;;;;;;;0.53;64.77;99801.00;5127282;57;1130710;-70
2022/04/02 02:02:20;;;;;;;8.63;2.83;;;;;;;0.58;64.51;99808.59;5213745;56;1130768;-69
2022/04/02 02:07:26;;;;;;;5.83;2.50;;;;;;;0.50;64.40;99803.75;5218487;56;1128643;-70
2022/04/02 02:12:33;;;;;;;11.23;3.20;;;;;;;0.44;64.27;99818.37;5218484;56;1128648;-70
2022/04/02 02:17:42;;;;;;;8.57;2.97;;;;;;;0.43;64.09;99813.23;5215991;56;1134927;-70
2022/04/02 02:22:50;;;;;;;11.80;3.63;;;;;;;0.46;64.02;99827.40;5218684;56;1132754;-69
2022/04/02 02:27:55;;;;;;;11.10;4.65;;;;;;;0.47;63.73;99825.16;5218498;56;1134845;-70
2022/04/02 02:38:27;;;;;;;13.37;5.30;;;;;;;0.43;63.65;99829.69;5278634;55;1135077;-69
2022/04/02 02:43:35;;;;;;;8.20;3.10;;;;;;;0.44;63.72;99836.57;5277108;55;1134789;-70
2022/04/02 02:48:43;;;;;;;7.57;3.50;;;;;;;0.44;63.70;99838.33;5277724;55;1132783;-69
2022/04/02 02:53:49;;;;;;;9.20;3.93;;;;;;;0.41;63.84;99834.11;5278616;56;1133015;-69
2022/04/02 02:58:55;;;;;;;8.10;3.47;;;;;;;0.39;63.64;99841.14;5278601;55;1132819;-70
2022/04/02 03:04:02;;;;;;;9.67;3.30;;;;;;;0.41;63.58;99843.22;5278498;55;1132762;-70
2022/04/02 03:09:09;;;;;;;8.33;3.17;;;;;;;0.46;63.64;99837.31;5278374;56;1132777;-69
2022/04/02 03:14:21;;;;;;;6.37;3.07;;;;;;;0.40;63.15;99845.89;5278481;56;1132708;-69
2022/04/02 03:19:24;;;;;;;6.40;2.77;;;;;;;0.37;63.19;99846.86;5277607;55;1132775;-67
2022/04/02 03:24:31;;;;;;;13.87;3.67;;;;;;;0.33;63.24;99846.16;5278390;56;1132797;-67
2022/04/02 03:29:39;;;;;;;12.57;4.10;;;;;;;0.23;63.26;99852.70;5265078;56;1134868;-70
2022/04/02 03:34:47;;;;;;;13.03;3.50;;;;;;;0.19;63.36;99849.85;5222639;55;1134890;-69
2022/04/02 03:39:53;;;;;;;5.97;2.87;;;;;;;0.14;63.43;99849.70;5231247;55;1134869;-70
2022/04/02 03:44:59;;;;;;;15.67;3.60;;;;;;;0.11;63.77;99853.27;5238054;55;1132847;-69
2022/04/02 03:50:06;;;;;;;6.47;2.53;;;;;;;0.00;64.01;99848.54;5262128;55;1134842;-69
2022/04/02 03:55:13;;;;;;;7.17;2.50;;;;;;;-0.01;64.52;99848.63;5077132;57;1132799;-70
2022/04/02 04:00:21;;;;;;;13.93;3.30;;;;;;;-0.08;64.22;99852.41;5035263;58;1134958;-69
2022/04/02 04:05:31;;;;;;;22.67;4.03;;;;;;;-0.10;64.46;99853.77;5217442;56;1136897;-70
2022/04/02 04:10:39;;;;;;;8.43;2.40;;;;;;;-0.16;64.79;99848.86;5217913;56;1137039;-70
2022/04/02 04:15:44;;;;;;;5.60;2.57;;;;;;;-0.19;64.94;99855.95;5218024;56;1134845;-70
2022/04/02 04:20:50;;;;;;;9.63;3.30;;;;;;;-0.18;65.31;99856.34;5217986;56;1134865;-70
2022/04/02 04:25:59;;;;;;;9.73;3.70;;;;;;;-0.17;65.16;99865.37;5217557;56;1134834;-70
2022/04/02 04:31:06;;;;;;;8.53;4.03;;;;;;;-0.18;65.41;99868.88;5187860;56;1134805;-69
2022/04/02 04:36:13;;;;;;;9.50;4.03;;;;;;;-0.23;65.75;99873.42;5191039;56;1134857;-70
2022/04/02 04:41:20;;;;;;;6.57;2.90;;;;;;;-0.20;66.32;99882.39;5150370;57;1135145;-71
2022/04/02 04:46:28;;;;;;;7.25;2.95;;;;;;;-0.23;66.27;99877.77;5155011;57;1134970;-69
2022/04/02 04:51:37;;;;;;;13.33;6.80;;;;;;;-0.19;66.22;99894.47;5216029;56;1132694;-70
2022/04/02 04:56:42;;;;;;;15.00;7.27;;;;;;;-0.14;66.36;99902.89;5180630;56;1134836;-71
2022/04/02 05:01:50;;;;;;;9.93;4.50;;;;;;;-0.09;66.36;99907.90;5155737;56;1134953;-69
2022/04/02 05:06:57;;;;;;;17.87;4.43;;;;;;;-0.08;66.71;99905.69;5155663;56;1132990;-70
2022/04/02 05:12:04;;;;;;;7.13;2.90;;;;;;;0.01;67.06;99902.67;5189334;56;21165;-70
2022/04/02 05:17:11;;;;;;;9.67;2.57;;;;;;;-0.02;67.60;99892.44;5155189;57;1127035;-70
2022/04/02 05:22:19;;;;;;;6.42;2.62;;;;;;;0.04;68.16;99899.09;5154907;57;1132718;-70
2022/04/02 05:27:29;;;;;;;15.87;4.87;;;;;;;0.05;68.36;99899.03;5071949;57;1130789;-70
2022/04/02 05:32:37;;;;;;;15.00;5.78;;;;;;;0.08;68.07;99906.70;5058367;58;1132855;-70
2022/04/02 05:37:47;;;;;;;19.53;4.87;;;;;;;0.12;68.06;99911.31;5140772;57;1132718;-70
2022/04/02 05:42:53;;;;;;;7.28;3.80;;;;;;;0.20;68.28;99912.65;5228742;56;1133271;-70
2022/04/02 05:48:00;;;;;;;8.33;3.80;;;;;;;0.25;68.45;99912.00;5228627;56;1130859;-70
2022/04/02 05:53:06;;;;;;;10.67;3.40;;;;;;;0.38;68.59;99916.63;5228601;56;1130723;-70
2022/04/02 05:58:14;;;;;;;6.53;3.17;;;;;;;0.57;68.85;99917.03;5228812;56;1133120;-71
2022/04/02 06:03:20;;;;;;;5.53;2.83;;;;;;;0.81;68.83;99919.39;5228807;56;1128815;-70
2022/04/02 06:08:26;;;;;;;9.73;2.70;;;;;;;0.93;68.32;99924.85;5228977;56;1132712;-71
2022/04/02 06:13:32;;;;;;;10.03;2.97;;;;;;;1.12;68.39;99929.19;5228748;56;1132841;-71
2022/04/02 06:18:38;;;;;;;7.70;3.98;;;;;;;1.37;67.95;99931.84;5228789;56;1134878;-70
2022/04/02 06:23:44;;;;;;;9.93;3.10;;;;;;;1.61;67.55;99932.37;5228760;56;1132710;-70
2022/04/02 06:28:50;;;;;;;10.48;3.70;;;;;;;1.71;66.32;99934.89;5222642;56;1132755;-71
2022/04/02 06:33:55;;;;;;;15.43;3.37;;;;;;;1.90;66.42;99937.87;5142471;57;1134855;-71
2022/04/02 06:39:01;;;;;;;33.67;4.30;;;;;;;2.16;65.95;99936.05;5151890;57;1134850;-71
2022/04/02 06:44:08;;;;;;;5.10;2.53;;;;;;;2.37;64.87;99947.98;5155954;57;1134884;-70
2022/04/02 06:49:14;;;;;;;10.27;3.13;;;;;;;2.66;64.63;99941.66;5155853;57;1132837;-70
2022/04/02 06:54:20;;;;;;;9.63;3.10;;;;;;;2.81;63.17;99942.97;5155623;57;1134856;-71
2022/04/02 06:59:26;;;;;;;10.43;5.50;;;;;;;2.97;62.65;99952.11;5155810;56;1132806;-71
2022/04/02 07:04:32;;;;;;;7.30;2.23;;;;;;;3.08;61.41;99952.34;5155764;57;1134881;-71
2022/04/02 07:09:38;;;;;;;8.13;2.40;;;;;;;3.12;60.57;99955.17;5155774;57;1132860;-70
2022/04/02 07:14:44;;;;;;;9.90;3.83;;;;;;;3.26;60.65;99957.47;5155696;57;1132953;-70
2022/04/02 07:19:51;;;;;;;12.20;2.43;;;;;;;3.29;58.24;99971.67;5155824;57;1132707;-71
2022/04/02 07:24:58;;;;;;;17.37;2.07;;;;;;;3.31;57.37;99971.13;5155955;57;1134917;-71
2022/04/02 07:30:05;;;;;;;12.40;2.43;;;;;;;3.39;55.75;99958.45;5183301;56;1134940;-70
2022/04/02 07:35:11;;;;;;;8.93;2.47;;;;;;;3.59;55.06;99969.08;5242099;56;1135018;-71
2022/04/02 07:40:24;;;;;;;20.77;2.37;;;;;;;3.81;53.94;99963.00;5220783;56;1132792;-70
2022/04/02 07:45:47;;;;;;;24.73;4.27;;;;;;;3.88;51.00;99971.69;5215775;56;1134806;-71
2022/04/02 07:50:54;;;;;;;9.13;2.17;;;;;;;3.99;51.53;99974.12;5215457;56;1135121;-70
2022/04/02 07:56:04;;;;;;;24.27;6.70;;;;;;;4.22;50.25;99975.77;5215431;56;1132811;-70
2022/04/02 08:01:14;;;;;;;13.20;3.00;;;;;;;4.50;49.96;99974.92;5220983;56;1134954;-70
2022/04/02 08:06:21;;;;;;;23.93;2.90;;;;;;;4.84;48.68;99983.33;5227361;56;1134918;-70
2022/04/02 08:11:28;;;;;;;26.13;2.43;;;;;;;4.92;47.70;99987.60;5082608;57;1134966;-71
2022/04/02 08:16:42;;;;;;;20.67;2.33;;;;;;;5.06;46.37;99994.13;5211086;56;1134971;-71
2022/04/02 08:21:42;;;;;;;17.37;2.10;;;;;;;5.18;46.05;99982.05;5029698;58;1134970;-70
2022/04/02 08:27:07;;;;;;;69.90;11.00;;;;;;;5.39;45.44;99997.69;5213716;56;1134810;-71
2022/04/02 08:32:44;;;;;;;17.83;3.40;;;;;;;5.50;45.33;99995.70;5151292;56;1135130;-71
2022/04/02 08:38:07;;;;;;;15.13;3.40;;;;;;;5.68;45.23;99989.70;5041045;58;1132837;-70
2022/04/02 08:43:49;;;;;;;9.18;2.22;;;;;;;5.80;44.62;100008.12;5042653;58;1132928;-71
2022/04/02 08:49:30;;;;;;;14.60;3.33;;;;;;;6.02;44.44;100010.65;4986712;57;1130736;-71
2022/04/02 08:54:43;;;;;;;14.77;3.33;;;;;;;6.16;42.97;100008.78;4996347;58;1136960;-70
2022/04/02 08:59:56;;;;;;;10.70;2.87;;;;;;;6.42;43.40;100003.05;5151298;57;1136927;-70
2022/04/02 09:05:10;;;;;;;;;;;;;;;6.64;39.54;100019.03;5153577;56;1137390;-70
2022/04/02 09:10:29;;;;;;;19.30;2.57;;;;;;;6.87;36.97;100010.88;5070871;58;972228;-70
2022/04/02 09:16:04;;;;;;;17.53;3.70;;;;;;;7.09;37.07;100014.13;5131838;57;1135168;-70
2022/04/02 09:21:26;;;;;;;41.50;3.77;;;;;;;7.20;35.60;100022.08;5151715;57;1136843;-71
2022/04/02 09:26:52;;;;;;;26.77;4.07;;;;;;;7.21;35.57;100012.39;5068026;57;1136958;-71
2022/04/02 09:32:19;;;;;;;25.67;3.40;;;;;;;7.34;37.10;100006.14;5150194;56;1136942;-71
2022/04/02 09:37:38;;;;;;;9.60;1.90;;;;;;;7.53;36.35;100012.70;5144687;57;1136932;-70
2022/04/02 09:42:49;;;;;;;50.57;3.60;;;;;;;7.68;36.27;100008.95;5117520;57;1133197;-70
2022/04/02 09:48:24;;;;;;;11.67;2.50;;;;;;;7.78;33.76;99995.97;5115270;57;1135019;-71
2022/04/02 09:53:33;;;;;;;12.78;2.92;;;;;;;7.90;35.74;100008.20;5051404;58;1132938;-70
2022/04/02 09:59:09;;;;;;;15.13;3.10;;;;;;;8.05;34.84;99998.68;5115954;57;1134879;-70
2022/04/02 10:04:42;;;;;;;42.20;3.90;;;;;;;8.03;33.98;100011.13;5046990;58;1135118;-70
2022/04/02 10:09:54;;;;;;;35.90;4.62;;;;;;;8.00;34.60;100010.03;5117232;57;1136958;-71
2022/04/02 10:15:03;;;;;;;4.73;1.73;;;;;;;8.08;34.14;100006.84;5010944;58;1137252;-70
2022/04/02 10:20:10;;;;;;;44.77;3.73;;;;;;;8.20;34.16;99997.16;5116872;57;1135403;-70
2022/04/02 10:25:17;;;;;;;38.57;4.90;;;;;;;8.22;34.76;99997.41;5042983;58;1134874;-70
2022/04/02 10:30:26;;;;;;;55.63;3.95;;;;;;;8.36;34.50;99995.91;5032403;58;1134840;-71
2022/04/02 10:35:32;;;;;;;23.10;4.37;;;;;;;8.66;33.92;99991.38;5052448;58;1135482;-70
2022/04/02 10:40:47;;;;;;;16.73;4.03;;;;;;;8.66;34.07;100009.83;5121434;57;1134872;-70
2022/04/02 10:45:57;;;;;;;20.13;3.80;;;;;;;8.74;35.47;99998.19;5120097;57;1136978;-70
2022/04/02 10:51:05;;;;;;;14.57;2.90;;;;;;;9.02;33.71;99998.17;5128901;57;1135138;-71
2022/04/02 10:56:16;;;;;;;28.10;3.90;;;;;;;9.15;34.53;100000.22;5120000;57;1135159;-70
2022/04/02 11:01:24;;;;;;;29.33;2.93;;;;;;;9.34;34.58;99994.27;5128900;57;1137005;-70
2022/04/02 11:06:51;;;;;;;24.57;2.45;;;;;;;9.63;32.13;99989.26;5118755;57;1134923;-70
2022/04/02 11:12:11;;;;;;;18.00;2.37;;;;;;;9.73;32.72;99994.64;5128316;57;1135123;-71
2022/04/02 11:17:35;;;;;;;26.30;2.43;;;;;;;9.82;32.37;99993.87;5117998;57;1137347;-71
2022/04/02 11:22:55;;;;;;;23.53;2.97;;;;;;;9.87;31.98;99991.22;5128580;57;1136768;-71
2022/04/02 11:28:16;;;;;;;29.30;7.63;;;;;;;9.85;32.01;99985.22;5119288;57;1135285;-70
2022/04/02 11:33:24;;;;;;;38.43;4.27;;;;;;;9.93;31.73;99991.68;5046923;57;1135377;-72
2022/04/02 11:38:34;;;;;;;43.07;3.40;;;;;;;10.13;31.85;99983.73;5136030;57;1135371;-70
2022/04/02 11:43:42;;;;;;;61.17;3.70;;;;;;;10.28;32.22;99995.34;5151389;57;1137123;-70
2022/04/02 11:49:00;;;;;;;159.17;11.10;;;;;;;10.35;30.70;99987.25;5084511;57;1137122;-70
2022/04/02 11:54:10;;;;;;;19.67;4.00;;;;;;;10.34;29.56;99982.94;5147924;57;1141249;-70
2022/04/02 11:59:18;;;;;;;31.73;3.63;;;;;;;10.25;31.26;99976.61;5155655;57;1137285;-71
2022/04/02 12:04:25;;;;;;;31.80;4.03;;;;;;;10.30;31.52;99975.74;5155819;57;1137127;-71
2022/04/02 12:09:31;;;;;;;20.90;3.90;;;;;;;10.29;30.75;99975.88;5155691;57;1134908;-71
2022/04/02 12:14:40;;;;;;;9.77;2.97;;;;;;;10.25;31.24;99977.92;5155760;57;1134866;-71
2022/04/02 12:19:50;;;;;;;21.37;2.63;;;;;;;10.45;31.10;99972.27;5154750;57;1137002;-70
2022/04/02 12:24:59;;;;;;;31.43;3.47;;;;;;;10.47;30.19;99983.08;5072062;58;1139011;-70
2022/04/02 12:30:09;;;;;;;11.68;3.15;;;;;;;10.50;31.00;99968.76;5098394;57;1139166;-70
2022/04/02 12:35:24;;;;;;;23.90;4.17;;;;;;;10.63;31.76;99990.53;5155667;57;1139189;-71
2022/04/02 12:40:33;;;;;;;16.30;3.03;;;;;;;10.62;31.61;99990.17;5155373;57;1139182;-71
2022/04/02 12:45:39;;;;;;;18.07;3.07;;;;;;;10.59;32.20;99983.82;5125013;57;1139029;-70
2022/04/02 12:51:04;;;;;;;30.20;4.00;;;;;;;10.72;31.90;99999.46;5157251;57;1139052;-70
2022/04/02 12:56:08;;;;;;;17.80;4.03;;;;;;;10.69;31.38;99990.50;5144693;57;1139286;-70
2022/04/02 13:01:33;;;;;;;10.53;3.37;;;;;;;10.67;30.92;99987.98;5118386;57;1139289;-70
2022/04/02 13:06:44;;;;;;;11.53;5.07;;;;;;;10.71;31.83;99989.85;5116281;57;1139271;-70
2022/04/02 13:12:05;;;;;;;36.33;9.27;;;;;;;10.72;31.31;99993.69;5115717;57;1139061;-70
2022/04/02 13:17:13;;;;;;;7.50;2.60;;;;;;;10.62;31.42;99988.85;5118256;57;1139286;-71
2022/04/02 13:22:24;;;;;;;14.80;3.50;;;;;;;10.74;30.76;100004.14;5139487;57;1137013;-70
2022/04/02 13:27:39;;;;;;;13.23;3.00;;;;;;;10.78;31.54;100008.20;5161695;56;1141106;-70
2022/04/02 13:33:06;;;;;;;11.53;3.63;;;;;;;10.83;30.76;100009.97;5285938;55;1141066;-71
2022/04/02 13:38:58;;;;;;;10.93;2.40;;;;;;;10.77;29.59;99998.59;5306919;55;1141119;-71
2022/04/02 13:44:08;;;;;;;36.23;3.77;;;;;;;10.54;31.08;100013.30;5306980;55;1137021;-71
2022/04/02 13:49:17;;;;;;;12.97;4.43;;;;;;;10.69;31.49;100018.27;5306349;55;1139321;-71
2022/04/02 13:54:36;;;;;;;23.80;3.70;;;;;;;10.74;30.45;100023.49;5306957;55;1139014;-71
2022/04/02 14:00:01;;;;;;;22.60;3.67;;;;;;;10.74;30.15;100026.14;5306850;55;1139046;-70
2022/04/02 14:05:30;;;;;;;14.17;3.37;;;;;;;10.76;30.35;100035.27;5307101;55;1141124;-71
2022/04/02 14:10:54;;;;;;;19.20;3.90;;;;;;;10.82;30.44;100029.46;5306959;55;1141123;-70
2022/04/02 14:16:06;;;;;;;13.47;6.03;;;;;;;10.71;29.39;100025.07;5306859;55;1141227;-71
2022/04/02 14:21:20;;;;;;;15.72;5.15;;;;;;;10.46;29.87;100024.18;5306694;55;1141105;-71
2022/04/02 14:26:48;;;;;;;11.20;3.20;;;;;;;10.41;29.90;100040.42;5306848;55;1141103;-70
